Djeneba — WDD7832 — position and weather

sailwx.info

Track history (hours):
 
Tides and Currents Weather Stations Pressure Air Temp Water Temp Dewpoint Dewpoint Depression Visibility Wind Speed Wind Dir Waves Ship Positions

Djeneba

Owner: Keller, James R, Gig Harbor, WA. More information available from US FCC via Universal Licensing System and Coast Guard Vessel Documentation Center.

Last reported at 2016-Aug-27 17:32 UTC. Time now 2016-Sep-26 19:04 UTC.
Position N 47°18' W 122°30'.
Warning: this ship's position is 30 days out of date.

Length 19 m.

Type: Pleasure craft. MMSI: 367191910.

Date/timePositionNaut miles runAvg speedWind from/ knotsBaromVisibWave heightAir tempDewpointWater temp
2016-Aug-27 17:32N 47°18' W 122°30'4 0.2
2016-Aug-26 16:32N 47°22' W 122°32'10 9.8
2016-Aug-26 15:33N 47°31' W 122°28'7 0.5
2016-Aug-26 00:32N 47°37' W 122°21'0 0.0
2016-Aug-25 23:33N 47°37' W 122°21'0 0.0
2016-Aug-25 22:33N 47°37' W 122°21'1 0.3
2016-Aug-25 20:28N 47°37' W 122°22'8 8.5
2016-Aug-25 19:33N 47°44' W 122°25'1010.1
2016-Aug-25 18:33N 47°54' W 122°22'20 9.6
2016-Aug-25 16:30N 48°13' W 122°33'11 1.2
2016-Aug-25 07:07N 48°24' W 122°30'3 0.3
2016-Aug-24 19:23N 48°27' W 122°31'10 9.1
2016-Aug-24 18:20N 48°35' W 122°38'7 9.0
2016-Aug-24 17:31N 48°36' W 122°49'6 0.9
2016-Aug-24 10:31N 48°41' W 122°55'0 0.0
2016-Aug-24 09:18N 48°41' W 122°55'0 0.0
2016-Aug-24 08:22N 48°41' W 122°55'0 0.0
2016-Aug-24 07:20N 48°41' W 122°55'0 0.0
2016-Aug-24 06:31N 48°41' W 122°55'0 0.0
2016-Aug-24 03:16N 48°41' W 122°55'0 0.0
2016-Aug-24 02:27N 48°41' W 122°55'0 0.0
2016-Aug-24 01:29N 48°41' W 122°55'0 0.0
2016-Aug-24 00:32N 48°41' W 122°55'0 0.0
2016-Aug-23 23:32N 48°41' W 122°55'0 0.0
2016-Aug-23 22:24N 48°41' W 122°55'0 0.0
2016-Aug-23 21:30N 48°41' W 122°55'0 0.0
2016-Aug-23 20:33N 48°41' W 122°55'1 1.1
2016-Aug-23 19:29N 48°40' W 122°54'15 0.7
2016-Aug-22 22:11N 48°31' W 122°37'0 0.0
2016-Aug-22 21:33N 48°31' W 122°37'1 0.6
2016-Aug-22 20:33N 48°31' W 122°36'8 7.5
2016-Aug-22 19:31N 48°32' W 122°47'8 8.5
2016-Aug-22 18:33N 48°33' W 122°60'1 0.9
2016-Aug-22 17:32N 48°32' W 123°01'0 0.0
2016-Aug-22 16:33N 48°32' W 123°01'0 0.0
2016-Aug-22 15:33N 48°32' W 123°01'0 0.0
2016-Aug-22 14:32N 48°32' W 123°01'0 0.0
2016-Aug-22 13:33N 48°32' W 123°01'0 0.0
2016-Aug-22 12:30N 48°32' W 123°01'0 0.0
2016-Aug-22 11:33N 48°32' W 123°01'0 0.0
2016-Aug-22 10:25N 48°32' W 123°01'0 0.0
2016-Aug-22 09:33N 48°32' W 123°01'0 0.0
2016-Aug-22 08:32N 48°32' W 123°01'0 0.0
2016-Aug-22 07:18N 48°32' W 123°01'0 0.0
2016-Aug-22 06:33N 48°32' W 123°01'0 0.0
2016-Aug-22 05:33N 48°32' W 123°01'0 0.0
2016-Aug-22 04:32N 48°32' W 123°01'0 0.0
2016-Aug-22 03:33N 48°32' W 123°01'0 0.0
2016-Aug-22 02:33N 48°32' W 123°01'0 0.0
2016-Aug-22 01:32N 48°32' W 123°01'0 0.0
2016-Aug-22 00:29N 48°32' W 123°01'0 0.0
2016-Aug-21 23:33N 48°32' W 123°01'0 0.0
2016-Aug-21 22:33N 48°32' W 123°01'0 0.0
2016-Aug-21 21:31N 48°32' W 123°01'0 0.0
2016-Aug-21 20:31N 48°32' W 123°01'0 0.0
2016-Aug-21 19:32N 48°32' W 123°01'0 0.2
2016-Aug-21 18:30N 48°32' W 123°01'0 0.1
2016-Aug-21 17:33N 48°32' W 123°01'19 3.9
2016-Aug-21 12:30N 48°48' W 123°19'0 0.0
2016-Aug-21 11:26N 48°48' W 123°19'0 0.0
2016-Aug-21 09:33N 48°48' W 123°19'0 0.0
2016-Aug-21 08:15N 48°48' W 123°19'0 0.0
2016-Aug-21 07:28N 48°48' W 123°19'0 0.0
2016-Aug-21 04:15N 48°48' W 123°19'0 0.0
2016-Aug-21 00:24N 48°48' W 123°19'0 0.0
2016-Aug-20 20:09N 48°48' W 123°19'2 2.3
2016-Aug-20 19:19N 48°49' W 123°21'2010.7
2016-Aug-20 17:28N 49°04' W 123°41'8 8.3
2016-Aug-20 16:33N 49°12' W 123°41'1110.5
2016-Aug-20 15:31N 49°21' W 123°50'9 9.8
2016-Aug-20 14:33N 49°28' W 123°60'10 9.7
2016-Aug-20 13:33N 49°37' W 124°04'1 1.4
2016-Aug-20 12:32N 49°38' W 124°02'0 0.0
2016-Aug-20 11:33N 49°38' W 124°02'0 0.0
2016-Aug-20 10:33N 49°38' W 124°02'0 0.0
2016-Aug-20 09:33N 49°38' W 124°02'0 0.0
2016-Aug-20 08:33N 49°38' W 124°02'0 0.0
2016-Aug-20 07:33N 49°38' W 124°02'0 0.0
2016-Aug-20 06:33N 49°38' W 124°02'0 0.0
2016-Aug-20 05:33N 49°38' W 124°02'0 0.0
2016-Aug-20 04:33N 49°38' W 124°02'0 0.0
2016-Aug-20 03:34N 49°38' W 124°02'0 0.0
2016-Aug-20 02:33N 49°38' W 124°02'0 0.0
2016-Aug-20 01:33N 49°38' W 124°02'0 0.0
2016-Aug-20 00:33N 49°38' W 124°02'0 0.0
2016-Aug-19 23:32N 49°38' W 124°02'0 0.0
2016-Aug-19 22:33N 49°38' W 124°02'0 0.0
2016-Aug-19 21:33N 49°38' W 124°02'0 0.0
2016-Aug-19 20:33N 49°38' W 124°02'5 5.4
2016-Aug-19 19:33N 49°39' W 124°10'1110.3
2016-Aug-19 18:31N 49°45' W 124°24'17 8.4
2016-Aug-19 16:33N 49°54' W 124°45'12 9.4
2016-Aug-19 15:16N 50°01' W 125°01'5 7.4
2016-Aug-19 14:34N 50°06' W 125°01'0 0.0
2016-Aug-19 13:33N 50°06' W 125°01'0 0.0
2016-Aug-19 12:33N 50°06' W 125°01'0 0.0
2016-Aug-19 11:33N 50°06' W 125°01'0 0.0
2016-Aug-19 10:33N 50°06' W 125°01'0 0.0
2016-Aug-19 09:33N 50°06' W 125°01'0 0.0
2016-Aug-19 08:33N 50°06' W 125°01'0 0.0
2016-Aug-19 07:33N 50°06' W 125°01'0 0.0
2016-Aug-19 06:32N 50°06' W 125°01'0 0.0
2016-Aug-19 05:33N 50°06' W 125°01'0 0.0
2016-Aug-19 04:33N 50°06' W 125°01'0 0.0
2016-Aug-19 03:34N 50°06' W 125°01'0 0.0
2016-Aug-19 02:33N 50°06' W 125°01'0 0.0
2016-Aug-19 01:33N 50°06' W 125°01'0 0.5
2016-Aug-19 00:33N 50°06' W 125°01'6 5.6
2016-Aug-18 23:29N 50°02' W 124°54'9 9.4
2016-Aug-18 22:31N 50°11' W 124°53'2 1.0
2016-Aug-18 20:32N 50°12' W 124°51'4 4.2
2016-Aug-18 19:33N 50°13' W 124°57'1110.6
2016-Aug-18 18:33N 50°21' W 125°08'  
Track history (hours):
 
Tides and Currents Weather Stations Pressure Air Temp Water Temp Dewpoint Dewpoint Depression Visibility Wind Speed Wind Dir Waves Ship Positions

Djeneba

Owner: Keller, James R, Gig Harbor, WA. More information available from US FCC via Universal Licensing System and Coast Guard Vessel Documentation Center.

Last reported at 2016-Aug-27 17:32 UTC. Time now 2016-Sep-26 19:04 UTC.
Position N 47°18' W 122°30'.
Warning: this ship's position is 30 days out of date.

Length 19 m.

Type: Pleasure craft. MMSI: 367191910.

Date/timePositionNaut miles runAvg speedWind from/ knotsBaromVisibWave heightAir tempDewpointWater temp
2016-Aug-27 17:32N 47°18' W 122°30'4 0.2
2016-Aug-26 16:32N 47°22' W 122°32'10 9.8
2016-Aug-26 15:33N 47°31' W 122°28'7 0.5
2016-Aug-26 00:32N 47°37' W 122°21'0 0.0
2016-Aug-25 23:33N 47°37' W 122°21'0 0.0
2016-Aug-25 22:33N 47°37' W 122°21'1 0.3
2016-Aug-25 20:28N 47°37' W 122°22'8 8.5
2016-Aug-25 19:33N 47°44' W 122°25'1010.1
2016-Aug-25 18:33N 47°54' W 122°22'20 9.6
2016-Aug-25 16:30N 48°13' W 122°33'11 1.2
2016-Aug-25 07:07N 48°24' W 122°30'3 0.3
2016-Aug-24 19:23N 48°27' W 122°31'10 9.1
2016-Aug-24 18:20N 48°35' W 122°38'7 9.0
2016-Aug-24 17:31N 48°36' W 122°49'6 0.9
2016-Aug-24 10:31N 48°41' W 122°55'0 0.0
2016-Aug-24 09:18N 48°41' W 122°55'0 0.0
2016-Aug-24 08:22N 48°41' W 122°55'0 0.0
2016-Aug-24 07:20N 48°41' W 122°55'0 0.0
2016-Aug-24 06:31N 48°41' W 122°55'0 0.0
2016-Aug-24 03:16N 48°41' W 122°55'0 0.0
2016-Aug-24 02:27N 48°41' W 122°55'0 0.0
2016-Aug-24 01:29N 48°41' W 122°55'0 0.0
2016-Aug-24 00:32N 48°41' W 122°55'0 0.0
2016-Aug-23 23:32N 48°41' W 122°55'0 0.0
2016-Aug-23 22:24N 48°41' W 122°55'0 0.0
2016-Aug-23 21:30N 48°41' W 122°55'0 0.0
2016-Aug-23 20:33N 48°41' W 122°55'1 1.1
2016-Aug-23 19:29N 48°40' W 122°54'15 0.7
2016-Aug-22 22:11N 48°31' W 122°37'0 0.0
2016-Aug-22 21:33N 48°31' W 122°37'1 0.6
2016-Aug-22 20:33N 48°31' W 122°36'8 7.5
2016-Aug-22 19:31N 48°32' W 122°47'8 8.5
2016-Aug-22 18:33N 48°33' W 122°60'1 0.9
2016-Aug-22 17:32N 48°32' W 123°01'0 0.0
2016-Aug-22 16:33N 48°32' W 123°01'0 0.0
2016-Aug-22 15:33N 48°32' W 123°01'0 0.0
2016-Aug-22 14:32N 48°32' W 123°01'0 0.0
2016-Aug-22 13:33N 48°32' W 123°01'0 0.0
2016-Aug-22 12:30N 48°32' W 123°01'0 0.0
2016-Aug-22 11:33N 48°32' W 123°01'0 0.0
2016-Aug-22 10:25N 48°32' W 123°01'0 0.0
2016-Aug-22 09:33N 48°32' W 123°01'0 0.0
2016-Aug-22 08:32N 48°32' W 123°01'0 0.0
2016-Aug-22 07:18N 48°32' W 123°01'0 0.0
2016-Aug-22 06:33N 48°32' W 123°01'0 0.0
2016-Aug-22 05:33N 48°32' W 123°01'0 0.0
2016-Aug-22 04:32N 48°32' W 123°01'0 0.0
2016-Aug-22 03:33N 48°32' W 123°01'0 0.0
2016-Aug-22 02:33N 48°32' W 123°01'0 0.0
2016-Aug-22 01:32N 48°32' W 123°01'0 0.0
2016-Aug-22 00:29N 48°32' W 123°01'0 0.0
2016-Aug-21 23:33N 48°32' W 123°01'0 0.0
2016-Aug-21 22:33N 48°32' W 123°01'0 0.0
2016-Aug-21 21:31N 48°32' W 123°01'0 0.0
2016-Aug-21 20:31N 48°32' W 123°01'0 0.0
2016-Aug-21 19:32N 48°32' W 123°01'0 0.2
2016-Aug-21 18:30N 48°32' W 123°01'0 0.1
2016-Aug-21 17:33N 48°32' W 123°01'19 3.9
2016-Aug-21 12:30N 48°48' W 123°19'0 0.0
2016-Aug-21 11:26N 48°48' W 123°19'0 0.0
2016-Aug-21 09:33N 48°48' W 123°19'0 0.0
2016-Aug-21 08:15N 48°48' W 123°19'0 0.0
2016-Aug-21 07:28N 48°48' W 123°19'0 0.0
2016-Aug-21 04:15N 48°48' W 123°19'0 0.0
2016-Aug-21 00:24N 48°48' W 123°19'0 0.0
2016-Aug-20 20:09N 48°48' W 123°19'2 2.3
2016-Aug-20 19:19N 48°49' W 123°21'2010.7
2016-Aug-20 17:28N 49°04' W 123°41'8 8.3
2016-Aug-20 16:33N 49°12' W 123°41'1110.5
2016-Aug-20 15:31N 49°21' W 123°50'9 9.8
2016-Aug-20 14:33N 49°28' W 123°60'10 9.7
2016-Aug-20 13:33N 49°37' W 124°04'1 1.4
2016-Aug-20 12:32N 49°38' W 124°02'0 0.0
2016-Aug-20 11:33N 49°38' W 124°02'0 0.0
2016-Aug-20 10:33N 49°38' W 124°02'0 0.0
2016-Aug-20 09:33N 49°38' W 124°02'0 0.0
2016-Aug-20 08:33N 49°38' W 124°02'0 0.0
2016-Aug-20 07:33N 49°38' W 124°02'0 0.0
2016-Aug-20 06:33N 49°38' W 124°02'0 0.0
2016-Aug-20 05:33N 49°38' W 124°02'0 0.0
2016-Aug-20 04:33N 49°38' W 124°02'0 0.0
2016-Aug-20 03:34N 49°38' W 124°02'0 0.0
2016-Aug-20 02:33N 49°38' W 124°02'0 0.0
2016-Aug-20 01:33N 49°38' W 124°02'0 0.0
2016-Aug-20 00:33N 49°38' W 124°02'0 0.0
2016-Aug-19 23:32N 49°38' W 124°02'0 0.0
2016-Aug-19 22:33N 49°38' W 124°02'0 0.0
2016-Aug-19 21:33N 49°38' W 124°02'0 0.0
2016-Aug-19 20:33N 49°38' W 124°02'5 5.4
2016-Aug-19 19:33N 49°39' W 124°10'1110.3
2016-Aug-19 18:31N 49°45' W 124°24'17 8.4
2016-Aug-19 16:33N 49°54' W 124°45'12 9.4
2016-Aug-19 15:16N 50°01' W 125°01'5 7.4
2016-Aug-19 14:34N 50°06' W 125°01'0 0.0
2016-Aug-19 13:33N 50°06' W 125°01'0 0.0
2016-Aug-19 12:33N 50°06' W 125°01'0 0.0
2016-Aug-19 11:33N 50°06' W 125°01'0 0.0
2016-Aug-19 10:33N 50°06' W 125°01'0 0.0
2016-Aug-19 09:33N 50°06' W 125°01'0 0.0
2016-Aug-19 08:33N 50°06' W 125°01'0 0.0
2016-Aug-19 07:33N 50°06' W 125°01'0 0.0
2016-Aug-19 06:32N 50°06' W 125°01'0 0.0
2016-Aug-19 05:33N 50°06' W 125°01'0 0.0
2016-Aug-19 04:33N 50°06' W 125°01'0 0.0
2016-Aug-19 03:34N 50°06' W 125°01'0 0.0
2016-Aug-19 02:33N 50°06' W 125°01'0 0.0
2016-Aug-19 01:33N 50°06' W 125°01'0 0.5
2016-Aug-19 00:33N 50°06' W 125°01'6 5.6
2016-Aug-18 23:29N 50°02' W 124°54'9 9.4
2016-Aug-18 22:31N 50°11' W 124°53'2 1.0
2016-Aug-18 20:32N 50°12' W 124°51'4 4.2
2016-Aug-18 19:33N 50°13' W 124°57'1110.6
2016-Aug-18 18:33N 50°21' W 125°08'  

Dump ship's entire track history